Time;durP1;ratioP1;P1;durP2;ratioP2;P2;SDS_P1;SDS_P2;PMS_P1;PMS_P2;Temp;Humidity;BMP_temperature;BMP_pressure;BME280_temperature;BME280_humidity;BME280_pressure;Samples;Min_cycle;Max_cycle;Signal;HPM_P1;HPM_P2
2022/08/10 00:00:41;;;;;;;11.60;9.35;;;19.80;99.90;;;;;;5074096;28;20037;-77
2022/08/10 00:03:08;;;;;;;10.30;9.18;;;19.80;99.90;;;;;;5073761;28;20116;-76
2022/08/10 00:05:36;;;;;;;11.80;8.90;;;19.70;99.90;;;;;;5076376;28;20036;-77
2022/08/10 00:08:04;;;;;;;12.32;9.13;;;19.80;99.90;;;;;;5059596;28;20103;-77
2022/08/10 00:10:32;;;;;;;12.82;8.93;;;19.70;99.90;;;;;;5077995;28;20037;-77
2022/08/10 00:12:59;;;;;;;12.55;9.27;;;19.70;99.90;;;;;;5059803;28;20574;-78
2022/08/10 00:15:27;;;;;;;10.45;8.88;;;19.60;99.90;;;;;;5077801;28;20048;-77
2022/08/10 00:17:55;;;;;;;12.18;10.30;;;19.70;99.90;;;;;;5078579;28;20042;-76
2022/08/10 00:20:23;;;;;;;13.77;10.52;;;19.60;99.90;;;;;;5078391;28;20036;-78
2022/08/10 00:22:50;;;;;;;12.75;11.43;;;19.60;99.90;;;;;;5077517;28;20064;-77
2022/08/10 00:25:17;;;;;;;12.82;11.43;;;19.60;99.90;;;;;;5077492;28;20040;-77
2022/08/10 00:27:44;;;;;;;14.45;11.18;;;19.60;99.90;;;;;;5059416;28;20049;-77
2022/08/10 00:30:13;;;;;;;12.90;11.32;;;19.60;99.90;;;;;;5092948;28;20040;-77
2022/08/10 00:32:40;;;;;;;15.15;11.52;;;19.60;99.90;;;;;;5099117;28;20044;-77
2022/08/10 00:35:10;;;;;;;14.65;12.23;;;19.60;99.90;;;;;;5107670;28;20028;-77
2022/08/10 00:37:37;;;;;;;13.77;12.18;;;19.60;99.90;;;;;;5098966;28;20052;-77
2022/08/10 00:40:05;;;;;;;13.88;11.93;;;19.60;99.90;;;;;;5099092;28;20070;-77
2022/08/10 00:42:33;;;;;;;13.48;12.07;;;19.50;99.90;;;;;;5097753;28;20074;-77
2022/08/10 00:45:00;;;;;;;13.40;11.85;;;19.50;99.90;;;;;;5076501;28;20075;-77
2022/08/10 00:47:27;;;;;;;12.95;11.57;;;19.50;99.90;;;;;;5059990;28;20448;-76
2022/08/10 00:49:55;;;;;;;14.95;11.82;;;19.60;99.90;;;;;;5037629;28;20477;-77
2022/08/10 00:52:25;;;;;;;13.27;11.80;;;19.60;99.90;;;;;;5037501;28;20072;-77
2022/08/10 00:54:53;;;;;;;12.32;11.10;;;19.60;99.90;;;;;;5022958;28;20072;-78
2022/08/10 00:57:20;;;;;;;11.95;10.75;;;19.60;99.90;;;;;;5055970;28;20124;-77
2022/08/10 00:59:48;;;;;;;13.95;12.30;;;19.60;99.90;;;;;;5066361;28;20049;-78
2022/08/10 01:02:15;;;;;;;13.65;11.82;;;19.60;99.90;;;;;;5080832;28;20021;-76
2022/08/10 01:04:42;;;;;;;13.98;12.48;;;19.60;99.90;;;;;;5081385;28;20048;-77
2022/08/10 01:07:29;;;;;;;14.30;12.25;;;19.60;99.90;;;;;;5064358;28;20107;-78
2022/08/10 01:10:09;;;;;;;14.48;12.55;;;19.60;99.90;;;;;;5039700;28;20052;-77
2022/08/10 01:12:54;;;;;;;13.90;11.73;;;19.60;99.90;;;;;;5039547;28;20111;-77
2022/08/10 01:15:28;;;;;;;13.85;12.30;;;19.60;99.90;;;;;;5039390;28;20083;-78
2022/08/10 01:18:02;;;;;;;14.30;12.80;;;19.60;99.90;;;;;;5056728;28;20068;-77
2022/08/10 01:20:47;;;;;;;13.98;12.50;;;19.60;99.90;;;;;;5056987;28;20104;-78
2022/08/10 01:23:55;;;;;;;14.38;12.02;;;19.60;99.90;;;;;;5058654;28;20120;-78
2022/08/10 01:26:37;;;;;;;14.02;11.90;;;19.60;99.90;;;;;;5058784;28;20036;-76
2022/08/10 01:29:32;;;;;;;12.05;10.85;;;19.60;99.90;;;;;;5064058;28;20041;-77
2022/08/10 01:32:04;;;;;;;13.85;12.45;;;19.70;99.90;;;;;;5078872;28;20063;-76
2022/08/10 01:34:34;;;;;;;12.90;11.30;;;19.70;99.90;;;;;;5060517;28;20498;-76
2022/08/10 01:37:08;;;;;;;13.18;11.88;;;19.70;99.90;;;;;;5078820;28;20047;-77
2022/08/10 01:39:40;;;;;;;13.70;11.23;;;19.70;99.90;;;;;;5078903;28;20043;-76
2022/08/10 01:42:13;;;;;;;12.43;11.13;;;19.70;99.90;;;;;;5082333;28;20103;-78
2022/08/10 01:44:47;;;;;;;13.25;10.95;;;19.70;99.90;;;;;;5046984;28;20048;-77
2022/08/10 01:50:06;;;;;;;14.00;10.57;;;19.70;99.90;;;;;;5058781;28;20041;-77
2022/08/10 01:52:36;;;;;;;11.82;10.68;;;19.70;99.90;;;;;;5059188;28;20506;-77
2022/08/10 01:55:05;;;;;;;13.52;11.48;;;19.70;99.90;;;;;;5058321;28;20102;-77
2022/08/10 01:57:34;;;;;;;12.00;10.27;;;19.70;99.90;;;;;;5058394;28;20102;-77
2022/08/10 02:00:03;;;;;;;12.80;10.40;;;19.70;99.90;;;;;;5040369;28;20037;-76
2022/08/10 02:02:36;;;;;;;11.60;10.07;;;19.70;99.90;;;;;;5058283;28;20037;-76
2022/08/10 02:05:06;;;;;;;12.45;10.90;;;19.60;99.90;;;;;;5057738;28;20514;-76
2022/08/10 02:07:35;;;;;;;14.27;10.35;;;19.70;99.90;;;;;;5057730;28;20550;-76
2022/08/10 02:10:06;;;;;;;12.73;10.85;;;19.70;99.90;;;;;;5057525;28;20095;-76
2022/08/10 02:12:35;;;;;;;12.88;10.95;;;19.60;99.90;;;;;;5056649;28;20045;-77
2022/08/10 02:15:07;;;;;;;11.80;10.70;;;19.60;99.90;;;;;;5057556;28;20140;-76
2022/08/10 02:17:38;;;;;;;12.25;11.05;;;19.50;99.90;;;;;;5057530;28;20041;-77
2022/08/10 02:20:11;;;;;;;13.48;12.13;;;19.50;99.90;;;;;;5056926;28;20492;-77
2022/08/10 02:22:40;;;;;;;14.82;12.13;;;19.50;99.90;;;;;;5037409;28;20201;-76
2022/08/10 02:25:09;;;;;;;12.43;10.98;;;19.40;99.90;;;;;;5036839;28;20050;-76
2022/08/10 02:27:37;;;;;;;13.32;11.40;;;19.40;99.90;;;;;;5036567;28;20403;-76
2022/08/10 02:30:08;;;;;;;16.40;11.13;;;19.40;99.90;;;;;;5046697;28;20492;-77
2022/08/10 02:32:37;;;;;;;12.02;10.48;;;19.30;99.90;;;;;;5049768;28;20055;-77
2022/08/10 02:35:08;;;;;;;12.65;11.35;;;19.30;99.90;;;;;;5057116;28;20049;-76
2022/08/10 02:37:38;;;;;;;13.77;11.35;;;19.30;99.90;;;;;;5039321;28;20419;-78
2022/08/10 02:40:07;;;;;;;12.63;10.50;;;19.30;99.90;;;;;;5057254;28;20049;-78
2022/08/10 02:42:42;;;;;;;12.38;10.60;;;19.20;99.90;;;;;;5056615;28;20048;-76
2022/08/10 02:45:16;;;;;;;14.00;11.27;;;19.20;99.90;;;;;;5057253;28;20480;-77
2022/08/10 02:47:46;;;;;;;13.82;10.70;;;19.20;99.90;;;;;;5058957;28;20056;-78
2022/08/10 02:50:22;;;;;;;13.05;10.35;;;19.10;99.90;;;;;;5058599;28;20036;-76
2022/08/10 02:52:55;;;;;;;13.13;10.93;;;19.20;99.90;;;;;;5058911;28;20060;-75
2022/08/10 02:55:29;;;;;;;11.98;10.68;;;19.10;99.90;;;;;;5058107;28;20454;-76
2022/08/10 02:57:58;;;;;;;14.88;13.15;;;19.10;99.90;;;;;;5058443;28;20496;-76
2022/08/10 03:00:28;;;;;;;14.65;11.25;;;19.20;99.90;;;;;;5076722;28;20032;-76
2022/08/10 03:02:59;;;;;;;17.02;12.40;;;19.20;99.90;;;;;;5076580;28;20071;-76
2022/08/10 03:05:28;;;;;;;15.10;12.88;;;19.10;99.90;;;;;;5058832;28;20048;-76
2022/08/10 03:08:01;;;;;;;14.88;12.50;;;19.10;99.90;;;;;;5076029;28;20059;-76
2022/08/10 03:10:31;;;;;;;15.57;11.38;;;19.10;99.90;;;;;;5058885;28;20045;-76
2022/08/10 03:13:01;;;;;;;16.33;12.10;;;19.20;99.90;;;;;;5077246;28;20408;-78
2022/08/10 03:15:33;;;;;;;14.35;11.70;;;19.20;99.90;;;;;;5057740;28;20053;-77
2022/08/10 03:18:01;;;;;;;15.43;12.05;;;19.20;99.90;;;;;;5069774;28;20044;-78
2022/08/10 03:20:31;;;;;;;15.30;12.07;;;19.20;99.90;;;;;;5042260;28;20049;-77
2022/08/10 03:23:00;;;;;;;14.60;12.38;;;19.30;99.90;;;;;;5039346;28;20048;-77
2022/08/10 03:25:29;;;;;;;15.90;12.73;;;19.20;99.90;;;;;;5057195;28;20069;-77
2022/08/10 03:27:57;;;;;;;15.98;13.07;;;19.20;99.90;;;;;;5057228;28;20106;-77
2022/08/10 03:30:26;;;;;;;16.65;13.48;;;19.20;99.90;;;;;;5073760;28;20044;-77
2022/08/10 03:32:56;;;;;;;14.45;12.60;;;19.20;99.90;;;;;;5075781;28;20045;-78
2022/08/10 03:35:25;;;;;;;17.20;12.90;;;19.30;99.90;;;;;;5078416;28;20056;-78
2022/08/10 03:37:52;;;;;;;14.65;11.18;;;19.30;99.90;;;;;;5059173;28;20139;-77
2022/08/10 03:40:20;;;;;;;17.55;12.63;;;19.30;99.90;;;;;;5076870;28;20119;-78
2022/08/10 03:42:50;;;;;;;19.15;12.93;;;19.30;99.90;;;;;;5060477;28;20070;-79
2022/08/10 03:45:18;;;;;;;18.48;12.57;;;19.40;99.90;;;;;;5081008;28;20045;-78
2022/08/10 03:47:46;;;;;;;18.08;12.73;;;19.30;99.90;;;;;;5086997;28;20056;-76
2022/08/10 03:50:17;;;;;;;14.30;11.88;;;19.40;99.90;;;;;;5084339;28;20484;-74
2022/08/10 03:52:45;;;;;;;14.65;10.85;;;19.40;99.90;;;;;;5058114;28;20048;-77
2022/08/10 03:55:13;;;;;;;15.30;11.00;;;19.40;99.90;;;;;;5076146;28;20045;-74
2022/08/10 03:57:41;;;;;;;12.63;11.35;;;19.40;99.90;;;;;;5057908;28;20045;-75
2022/08/10 04:00:11;;;;;;;14.85;11.05;;;19.40;99.90;;;;;;5058085;28;20408;-75
2022/08/10 04:02:39;;;;;;;15.75;11.80;;;19.40;99.90;;;;;;5076074;28;20102;-75
2022/08/10 04:05:08;;;;;;;16.48;11.77;;;19.40;99.90;;;;;;5076666;28;20124;-75
2022/08/10 04:07:37;;;;;;;16.65;12.63;;;19.40;99.90;;;;;;5076221;28;20059;-74
2022/08/10 04:10:05;;;;;;;13.27;11.93;;;19.40;99.90;;;;;;5057716;28;20037;-75
2022/08/10 04:12:32;;;;;;;12.82;11.05;;;19.40;99.90;;;;;;5057274;28;20055;-75
2022/08/10 04:14:59;;;;;;;14.30;12.80;;;19.40;99.90;;;;;;5073945;28;20043;-76
2022/08/10 04:17:27;;;;;;;13.68;12.20;;;19.40;99.90;;;;;;5057142;28;20094;-74
2022/08/10 04:19:57;;;;;;;13.13;11.73;;;19.40;99.90;;;;;;5066755;28;20444;-76
2022/08/10 04:22:27;;;;;;;15.90;13.15;;;19.40;99.90;;;;;;5076272;28;20041;-74
2022/08/10 04:24:59;;;;;;;16.88;12.50;;;19.40;99.90;;;;;;5078651;28;20036;-76
2022/08/10 04:27:27;;;;;;;20.98;14.02;;;19.40;99.90;;;;;;5076764;28;20063;-75
2022/08/10 04:29:55;;;;;;;18.42;13.02;;;19.50;99.90;;;;;;5072453;28;20058;-76
2022/08/10 04:32:23;;;;;;;16.65;12.23;;;19.50;99.90;;;;;;5096887;28;20123;-76
2022/08/10 04:34:52;;;;;;;19.80;13.10;;;19.50;99.90;;;;;;5063057;28;20052;-77
2022/08/10 04:37:22;;;;;;;13.18;11.15;;;19.50;99.90;;;;;;5077514;28;20106;-78
2022/08/10 04:39:49;;;;;;;18.25;13.68;;;19.50;99.90;;;;;;5079028;28;20053;-78
2022/08/10 04:42:18;;;;;;;18.00;11.77;;;19.50;99.90;;;;;;5063089;28;20071;-75
2022/08/10 04:44:46;;;;;;;20.67;12.80;;;19.50;99.90;;;;;;5085267;28;20095;-80
2022/08/10 04:47:14;;;;;;;18.30;13.95;;;19.50;99.90;;;;;;5102836;28;20067;-80
2022/08/10 04:49:41;;;;;;;15.43;12.77;;;19.60;99.90;;;;;;5089806;28;20091;-79
2022/08/10 04:52:08;;;;;;;15.50;12.75;;;19.60;99.90;;;;;;5084689;28;20049;-78
2022/08/10 04:54:36;;;;;;;15.35;12.98;;;19.60;99.90;;;;;;5089011;28;20044;-79
2022/08/10 04:57:03;;;;;;;16.05;13.73;;;19.60;99.90;;;;;;5089175;28;20522;-78
2022/08/10 04:59:32;;;;;;;17.48;13.80;;;19.60;99.90;;;;;;5071324;28;20068;-78
2022/08/10 05:02:00;;;;;;;17.05;14.80;;;19.60;99.90;;;;;;5088052;28;20043;-79
2022/08/10 05:04:27;;;;;;;15.95;13.40;;;19.60;99.90;;;;;;5070804;28;20143;-80
2022/08/10 05:06:55;;;;;;;21.42;14.60;;;19.70;99.90;;;;;;5072232;28;20098;-79
2022/08/10 05:09:22;;;;;;;14.68;13.18;;;19.70;99.90;;;;;;5084712;28;20048;-78
2022/08/10 05:11:49;;;;;;;16.52;13.32;;;19.70;99.90;;;;;;5105604;28;20134;-78
2022/08/10 05:14:17;;;;;;;20.42;13.05;;;19.80;99.90;;;;;;5087005;28;20446;-80
2022/08/10 05:16:45;;;;;;;14.68;12.73;;;19.70;99.90;;;;;;5087632;28;20040;-79
2022/08/10 05:19:13;;;;;;;15.15;12.73;;;19.80;99.90;;;;;;5068826;28;20488;-78
2022/08/10 05:21:40;;;;;;;15.85;12.70;;;19.80;99.90;;;;;;5086152;28;20044;-77
2022/08/10 05:24:08;;;;;;;13.63;12.23;;;19.80;99.90;;;;;;5088162;28;20063;-77
2022/08/10 05:26:35;;;;;;;15.70;12.40;;;19.80;99.90;;;;;;5072920;28;20043;-78
2022/08/10 05:29:03;;;;;;;15.25;11.90;;;19.80;99.90;;;;;;5093511;28;20090;-78
2022/08/10 05:31:30;;;;;;;14.38;12.77;;;19.80;99.90;;;;;;5093392;28;20040;-78
2022/08/10 05:33:59;;;;;;;14.00;12.55;;;19.90;99.90;;;;;;5092079;28;20048;-77
2022/08/10 05:36:27;;;;;;;15.95;12.48;;;19.90;99.90;;;;;;5066969;28;20118;-78
2022/08/10 05:38:55;;;;;;;19.95;13.63;;;20.00;99.90;;;;;;5084395;28;20048;-77
2022/08/10 05:41:23;;;;;;;16.40;13.15;;;20.00;99.90;;;;;;5084680;28;20475;-78
2022/08/10 05:43:51;;;;;;;15.50;12.90;;;20.00;99.90;;;;;;5083957;28;20500;-76
2022/08/10 05:46:18;;;;;;;17.10;13.45;;;20.00;99.90;;;;;;5089057;28;20648;-76
2022/08/10 05:48:45;;;;;;;15.98;12.90;;;20.00;99.90;;;;;;5089716;28;20131;-78
2022/08/10 05:51:14;;;;;;;21.50;13.50;;;20.00;99.90;;;;;;5085129;28;20041;-77
2022/08/10 05:53:42;;;;;;;17.48;13.73;;;20.10;99.90;;;;;;5083055;28;20048;-78
2022/08/10 05:56:09;;;;;;;19.80;13.32;;;20.10;99.90;;;;;;5080438;28;20052;-78
2022/08/10 05:58:37;;;;;;;18.65;14.32;;;20.20;99.90;;;;;;5080376;28;20051;-78
2022/08/10 06:01:07;;;;;;;16.60;13.55;;;20.20;99.90;;;;;;5079244;28;20043;-78
2022/08/10 06:03:40;;;;;;;14.10;12.57;;;20.30;99.90;;;;;;5077696;28;20053;-78
2022/08/10 06:06:10;;;;;;;17.77;13.40;;;20.40;99.90;;;;;;5079345;28;20044;-78
2022/08/10 06:08:41;;;;;;;17.50;12.73;;;20.50;99.90;;;;;;5061282;28;20054;-78
2022/08/10 06:11:11;;;;;;;17.42;12.98;;;20.60;99.90;;;;;;5078445;28;20051;-78
2022/08/10 06:16:26;;;;;;;14.52;12.88;;;20.70;99.90;;;;;;5079018;28;20032;-78
2022/08/10 06:18:55;;;;;;;19.60;12.63;;;20.70;99.90;;;;;;5079923;28;20047;-79
2022/08/10 06:21:23;;;;;;;21.45;13.63;;;20.80;99.90;;;;;;5080883;28;20032;-77
2022/08/10 06:23:53;;;;;;;17.13;11.57;;;20.80;99.90;;;;;;5084677;28;20064;-77
2022/08/10 06:26:20;;;;;;;14.75;10.85;;;20.90;99.90;;;;;;5089688;28;20051;-77
2022/08/10 06:28:52;;;;;;;16.30;11.35;;;20.90;99.90;;;;;;5078942;28;20063;-78
2022/08/10 06:31:21;;;;;;;18.58;13.52;;;20.90;99.90;;;;;;5097266;28;20040;-78
2022/08/10 06:33:50;;;;;;;20.75;12.75;;;21.00;99.90;;;;;;5097951;28;20028;-78
2022/08/10 06:36:18;;;;;;;18.45;12.35;;;21.00;99.90;;;;;;5098634;28;20033;-77
2022/08/10 06:38:46;;;;;;;13.65;11.27;;;21.00;99.90;;;;;;5097897;28;20456;-78
2022/08/10 06:41:22;;;;;;;13.90;10.85;;;21.10;99.90;;;;;;5076514;28;20060;-77
2022/08/10 06:43:57;;;;;;;16.15;10.73;;;21.10;99.90;;;;;;5076053;28;20071;-79
2022/08/10 06:46:26;;;;;;;18.73;10.35;;;21.20;99.90;;;;;;5098194;28;20029;-78
2022/08/10 06:48:57;;;;;;;14.07;10.52;;;21.20;99.90;;;;;;5098206;28;20067;-78
2022/08/10 06:51:29;;;;;;;19.90;13.07;;;21.30;99.90;;;;;;5098525;28;20094;-77
2022/08/10 06:54:01;;;;;;;16.95;12.20;;;21.40;99.90;;;;;;5079205;28;20119;-78
2022/08/10 06:56:32;;;;;;;12.68;10.35;;;21.30;99.90;;;;;;5095950;28;20045;-78
2022/08/10 06:59:05;;;;;;;11.05;8.30;;;21.40;99.90;;;;;;5095565;28;20055;-78
2022/08/10 07:01:35;;;;;;;8.60;7.22;;;21.50;99.90;;;;;;5081611;28;20036;-78
2022/08/10 07:04:06;;;;;;;19.00;10.00;;;21.60;99.90;;;;;;5079561;28;20040;-78
2022/08/10 07:06:36;;;;;;;16.40;12.45;;;21.80;99.90;;;;;;5081062;28;20033;-77
2022/08/10 07:09:04;;;;;;;11.40;9.35;;;22.10;99.90;;;;;;5063905;28;20106;-77
2022/08/10 07:11:34;;;;;;;14.65;10.43;;;22.20;99.90;;;;;;5082169;28;20036;-78
2022/08/10 07:14:03;;;;;;;14.25;9.15;;;22.20;99.90;;;;;;5062913;28;20076;-78
2022/08/10 07:16:33;;;;;;;13.85;10.15;;;22.30;99.90;;;;;;5083294;28;20072;-77
2022/08/10 07:19:01;;;;;;;10.70;8.38;;;22.40;99.90;;;;;;5083261;28;20170;-79
2022/08/10 07:21:31;;;;;;;37.03;16.02;;;22.60;99.90;;;;;;5069277;28;20487;-78
2022/08/10 07:24:01;;;;;;;11.73;8.77;;;22.70;99.90;;;;;;5080760;28;20041;-78
2022/08/10 07:26:32;;;;;;;11.20;7.90;;;22.80;99.90;;;;;;5059658;28;20044;-77
2022/08/10 07:29:01;;;;;;;12.35;7.90;;;22.80;99.90;;;;;;5075866;28;20063;-81
2022/08/10 07:31:30;;;;;;;10.90;8.35;;;22.80;99.90;;;;;;5075509;28;20550;-78
2022/08/10 07:34:01;;;;;;;10.82;7.80;;;22.70;99.90;;;;;;5057533;28;20500;-78
2022/08/10 07:36:31;;;;;;;9.52;7.72;;;22.80;99.90;;;;;;5076021;28;20059;-79
2022/08/10 07:39:00;;;;;;;9.20;7.57;;;22.90;99.90;;;;;;5075807;28;20056;-77
2022/08/10 07:41:30;;;;;;;12.20;7.88;;;22.80;99.90;;;;;;5075760;28;20040;-77
2022/08/10 07:44:01;;;;;;;11.02;8.25;;;23.00;99.90;;;;;;5076582;28;20052;-79
2022/08/10 07:46:31;;;;;;;13.23;7.50;;;23.10;99.90;;;;;;5081757;28;20112;-73
2022/08/10 07:49:02;;;;;;;10.52;8.27;;;22.90;99.90;;;;;;5086659;28;20074;-79
2022/08/10 07:51:32;;;;;;;12.77;9.98;;;23.10;99.90;;;;;;5058610;28;20114;-79
2022/08/10 07:54:04;;;;;;;13.23;10.68;;;23.10;99.90;;;;;;5071019;28;20052;-78
2022/08/10 07:56:34;;;;;;;12.90;9.18;;;23.00;99.90;;;;;;5092557;28;20052;-78
2022/08/10 07:59:07;;;;;;;9.43;7.03;;;22.90;99.90;;;;;;5090550;28;20045;-77
2022/08/10 08:01:38;;;;;;;9.93;8.45;;;23.00;99.90;;;;;;5089526;28;20459;-78
2022/08/10 08:04:06;;;;;;;11.25;9.63;;;22.90;99.90;;;;;;5086112;28;20052;-78
2022/08/10 08:06:36;;;;;;;10.50;7.50;;;23.00;99.90;;;;;;5077892;28;20074;-77
2022/08/10 08:09:05;;;;;;;9.40;7.50;;;23.10;99.90;;;;;;5076426;28;20044;-79
2022/08/10 08:11:34;;;;;;;9.32;7.95;;;23.00;99.90;;;;;;5076406;28;20123;-80
2022/08/10 08:14:04;;;;;;;11.88;7.63;;;23.00;99.90;;;;;;5075801;28;20044;-79
2022/08/10 08:16:32;;;;;;;14.05;11.25;;;23.10;99.90;;;;;;5075297;28;20111;-80
2022/08/10 08:19:00;;;;;;;11.43;9.43;;;23.10;99.90;;;;;;5057590;28;20453;-80
2022/08/10 08:21:28;;;;;;;16.83;13.30;;;23.10;99.90;;;;;;5075426;28;20407;-78
2022/08/10 08:23:56;;;;;;;14.63;10.15;;;23.20;99.90;;;;;;5057024;28;20041;-80
2022/08/10 08:26:25;;;;;;;10.70;8.60;;;23.40;99.90;;;;;;5059142;28;20514;-78
2022/08/10 08:28:53;;;;;;;10.85;9.05;;;23.50;99.90;;;;;;5084431;28;20089;-80
2022/08/10 08:31:23;;;;;;;9.60;7.97;;;23.50;99.90;;;;;;5083327;28;20097;-82
2022/08/10 08:33:51;;;;;;;10.70;8.80;;;23.60;99.90;;;;;;5100217;28;20040;-79
2022/08/10 08:36:19;;;;;;;14.55;12.20;;;23.70;99.90;;;;;;5100734;28;20048;-77
2022/08/10 08:38:48;;;;;;;11.70;8.98;;;23.90;99.90;;;;;;5093717;28;20054;-79
2022/08/10 08:41:40;;;;;;;14.10;7.75;;;24.10;99.90;;;;;;5101312;28;20490;-79
2022/08/10 08:44:15;;;;;;;11.18;8.07;;;24.40;99.90;;;;;;5082406;28;20093;-77
2022/08/10 08:47:01;;;;;;;16.63;10.82;;;24.60;99.90;;;;;;5101269;28;20040;-79
2022/08/10 08:49:46;;;;;;;12.52;9.82;;;24.70;99.90;;;;;;5082153;28;20495;-78
2022/08/10 08:52:25;;;;;;;19.15;12.95;;;24.70;99.90;;;;;;5100116;28;20036;-78
2022/08/10 08:55:02;;;;;;;16.58;12.15;;;24.80;99.90;;;;;;5096336;28;20029;-78
2022/08/10 08:57:43;;;;;;;16.80;10.25;;;24.80;99.90;;;;;;5061477;28;20504;-78
2022/08/10 09:00:18;;;;;;;15.40;11.80;;;24.70;99.90;;;;;;5079484;28;20048;-78
2022/08/10 09:03:10;;;;;;;10.53;7.57;;;24.70;99.90;;;;;;5080151;28;20041;-79
2022/08/10 09:05:48;;;;;;;13.48;8.27;;;24.50;99.90;;;;;;5079118;28;20036;-79
2022/08/10 09:08:40;;;;;;;14.23;9.95;;;24.60;99.90;;;;;;5078348;28;20407;-78
2022/08/10 09:11:22;;;;;;;9.60;7.88;;;24.70;99.90;;;;;;5078840;28;20041;-79
2022/08/10 09:14:00;;;;;;;14.38;10.32;;;24.80;99.90;;;;;;5078438;28;20036;-79
2022/08/10 09:16:32;;;;;;;10.95;8.23;;;24.90;99.90;;;;;;5079248;28;20044;-79
2022/08/10 09:19:08;;;;;;;12.95;9.25;;;24.90;99.90;;;;;;5078825;28;20041;-79
2022/08/10 09:21:48;;;;;;;12.43;9.20;;;24.90;99.90;;;;;;5078527;28;20040;-80
2022/08/10 09:24:25;;;;;;;11.48;8.93;;;25.10;99.90;;;;;;5078266;28;20403;-79
2022/08/10 09:26:55;;;;;;;12.52;9.00;;;25.20;99.90;;;;;;5079100;28;20043;-78
2022/08/10 09:29:27;;;;;;;9.20;7.43;;;25.30;99.90;;;;;;5068733;28;20043;-78
2022/08/10 09:32:14;;;;;;;12.13;8.52;;;25.40;99.90;;;;;;5098287;28;20036;-78
2022/08/10 09:34:57;;;;;;;13.40;8.70;;;25.60;99.90;;;;;;5098589;28;20048;-77
2022/08/10 09:37:32;;;;;;;16.00;12.73;;;25.60;99.90;;;;;;5079834;28;20113;-78
2022/08/10 09:40:06;;;;;;;11.38;7.75;;;25.50;99.90;;;;;;5099791;28;20063;-77
2022/08/10 09:42:40;;;;;;;13.73;10.13;;;25.60;99.90;;;;;;5099425;28;20036;-76
2022/08/10 09:45:16;;;;;;;10.65;8.40;;;25.70;99.90;;;;;;5099818;28;20058;-78
2022/08/10 09:47:51;;;;;;;;;;;25.70;99.90;;;;;;5100081;28;20058;-78
2022/08/10 09:50:29;;;;;;;14.98;11.20;;;25.70;99.90;;;;;;5066284;22;19921;-78
2022/08/10 09:53:08;;;;;;;10.70;8.98;;;26.00;99.90;;;;;;5042764;28;20042;-78
2022/08/10 09:55:42;;;;;;;14.73;9.82;;;25.90;99.90;;;;;;5050100;28;20033;-78
2022/08/10 09:58:28;;;;;;;14.60;11.70;;;25.70;99.90;;;;;;5061547;28;20049;-77
2022/08/10 10:01:01;;;;;;;;;;;25.80;99.90;;;;;;5044677;28;20053;-77
2022/08/10 10:03:36;;;;;;;13.95;8.85;;;25.50;99.90;;;;;;5063606;28;19928;-78
2022/08/10 10:06:13;;;;;;;13.25;8.20;;;25.60;99.90;;;;;;5043947;28;20072;-77
2022/08/10 10:08:48;;;;;;;11.38;9.07;;;25.70;99.90;;;;;;5042232;28;20053;-77
2022/08/10 10:11:19;;;;;;;10.65;8.50;;;25.80;99.90;;;;;;5060389;28;20557;-78
2022/08/10 10:13:57;;;;;;;12.90;9.85;;;25.60;99.90;;;;;;5061456;28;20047;-77
2022/08/10 10:16:39;;;;;;;15.38;11.30;;;25.70;99.90;;;;;;5061480;28;20037;-77
2022/08/10 10:19:23;;;;;;;13.65;9.27;;;25.90;99.90;;;;;;5054457;28;20052;-76
2022/08/10 10:21:59;;;;;;;17.70;12.02;;;25.60;99.90;;;;;;5038680;28;20041;-78
2022/08/10 10:24:36;;;;;;;11.60;8.95;;;25.90;99.90;;;;;;5037656;28;20072;-78
2022/08/10 10:27:14;;;;;;;10.18;9.00;;;26.20;99.90;;;;;;5039169;28;20100;-77
2022/08/10 10:29:49;;;;;;;15.02;12.05;;;26.20;99.90;;;;;;5074607;28;20071;-78
2022/08/10 10:32:26;;;;;;;17.40;12.95;;;26.20;99.90;;;;;;5078132;28;20037;-78
2022/08/10 10:35:03;;;;;;;13.65;10.90;;;26.30;99.90;;;;;;5078740;28;20040;-75
2022/08/10 10:37:33;;;;;;;16.80;10.25;;;26.20;99.90;;;;;;5076128;28;20041;-76
2022/08/10 10:40:03;;;;;;;13.27;10.27;;;25.90;99.90;;;;;;5074922;28;20055;-75
2022/08/10 10:42:38;;;;;;;13.10;9.40;;;25.70;99.90;;;;;;5074789;28;20060;-75
2022/08/10 10:45:16;;;;;;;16.15;11.90;;;25.80;99.90;;;;;;5075206;28;20094;-76
2022/08/10 10:47:59;;;;;;;13.02;9.43;;;25.70;99.90;;;;;;5074920;28;20040;-76
2022/08/10 10:50:33;;;;;;;12.25;9.35;;;25.60;99.90;;;;;;5056493;28;20196;-76
2022/08/10 10:53:13;;;;;;;16.33;13.75;;;25.60;99.90;;;;;;5075616;28;20040;-76
2022/08/10 10:55:47;;;;;;;13.85;11.48;;;25.40;99.90;;;;;;5064250;28;20041;-75
2022/08/10 10:58:19;;;;;;;14.70;11.70;;;25.30;99.90;;;;;;5038628;28;20072;-76
2022/08/10 11:00:56;;;;;;;16.15;13.55;;;25.10;99.90;;;;;;5057055;28;20048;-75
2022/08/10 11:03:59;;;;;;;19.67;13.07;;;25.20;99.90;;;;;;5056231;28;20041;-75
2022/08/10 11:06:44;;;;;;;11.30;8.10;;;25.10;99.90;;;;;;5057181;28;20053;-78
2022/08/10 11:09:18;;;;;;;18.02;9.90;;;25.10;99.90;;;;;;5046797;28;20057;-77
2022/08/10 11:11:48;;;;;;;12.13;9.88;;;25.30;99.90;;;;;;5068829;28;20056;-78
2022/08/10 11:14:25;;;;;;;10.98;8.10;;;25.50;99.90;;;;;;5045114;28;20045;-78
2022/08/10 11:16:58;;;;;;;13.00;8.73;;;25.40;99.90;;;;;;5057924;28;20040;-78
2022/08/10 11:19:33;;;;;;;13.30;9.15;;;25.60;99.90;;;;;;5058283;28;20079;-78
2022/08/10 11:22:13;;;;;;;13.57;10.68;;;25.60;99.90;;;;;;5057564;28;20075;-78
2022/08/10 11:24:52;;;;;;;17.58;12.27;;;25.70;99.90;;;;;;5055399;28;20044;-77
2022/08/10 11:27:31;;;;;;;10.52;9.05;;;25.70;99.90;;;;;;5057547;28;20403;-77
2022/08/10 11:30:04;;;;;;;16.88;10.23;;;25.50;99.90;;;;;;5069756;28;20047;-77
2022/08/10 11:32:46;;;;;;;13.63;11.80;;;25.60;99.90;;;;;;5076586;28;20058;-77
2022/08/10 11:35:26;;;;;;;17.45;13.77;;;25.60;99.90;;;;;;5058488;28;20052;-77
2022/08/10 11:38:03;;;;;;;11.95;9.60;;;25.60;99.90;;;;;;5076573;28;20076;-77
2022/08/10 11:40:37;;;;;;;13.32;9.63;;;25.40;99.90;;;;;;5077163;28;20052;-79
2022/08/10 11:43:12;;;;;;;14.45;9.50;;;25.40;99.90;;;;;;5075561;28;20044;-77
2022/08/10 11:45:45;;;;;;;17.43;11.80;;;25.40;99.90;;;;;;5057568;28;20048;-77
2022/08/10 11:48:20;;;;;;;13.82;10.43;;;25.30;99.90;;;;;;5084526;28;20384;-76
2022/08/10 11:50:52;;;;;;;11.63;10.30;;;25.30;99.90;;;;;;5088826;28;20113;-76
2022/08/10 11:53:26;;;;;;;13.05;9.55;;;25.10;99.90;;;;;;5067078;28;20048;-77
2022/08/10 11:55:58;;;;;;;17.75;9.35;;;25.10;99.90;;;;;;5076829;28;20091;-76
2022/08/10 12:01:19;;;;;;;38.78;30.27;;;25.20;99.90;;;;;;5055481;28;20044;-77
2022/08/10 12:03:47;;;;;;;18.02;12.20;;;25.20;99.90;;;;;;5055546;28;20037;-77
2022/08/10 12:06:18;;;;;;;16.73;12.23;;;25.20;99.90;;;;;;5041698;28;20049;-76
2022/08/10 12:08:49;;;;;;;12.30;8.52;;;25.10;99.90;;;;;;5056592;28;20045;-76
2022/08/10 12:11:23;;;;;;;11.35;8.73;;;25.10;99.90;;;;;;5055487;28;20041;-76
2022/08/10 12:13:57;;;;;;;13.35;9.93;;;25.20;99.90;;;;;;5054974;28;20476;-77
2022/08/10 12:16:27;;;;;;;22.10;17.33;;;25.50;99.90;;;;;;5056437;28;20052;-77
2022/08/10 12:19:04;;;;;;;13.77;10.85;;;25.80;99.90;;;;;;5036920;28;20458;-77
2022/08/10 12:21:36;;;;;;;13.75;9.52;;;25.80;99.90;;;;;;5055483;28;20051;-76
2022/08/10 12:24:11;;;;;;;19.90;12.55;;;25.90;99.90;;;;;;5054768;28;20041;-76
2022/08/10 12:26:47;;;;;;;13.15;8.95;;;26.30;99.90;;;;;;5056140;28;20488;-78
2022/08/10 12:29:24;;;;;;;17.20;9.73;;;26.30;99.90;;;;;;5062237;28;20063;-77
2022/08/10 12:31:57;;;;;;;14.18;8.80;;;26.70;99.90;;;;;;5077787;28;20090;-76
2022/08/10 12:34:30;;;;;;;9.63;7.03;;;26.80;99.90;;;;;;5075854;28;20036;-77
2022/08/10 12:37:06;;;;;;;15.10;10.30;;;27.10;99.90;;;;;;5077411;28;20072;-77
2022/08/10 12:39:41;;;;;;;10.55;7.53;;;27.40;99.90;;;;;;5078151;28;20119;-76
2022/08/10 12:42:17;;;;;;;9.77;8.35;;;27.60;99.90;;;;;;5077176;28;20505;-77
2022/08/10 12:44:52;;;;;;;12.30;7.80;;;27.50;99.90;;;;;;5074486;28;20045;-77
2022/08/10 12:47:29;;;;;;;7.07;6.20;;;27.40;99.90;;;;;;5074246;28;20072;-78
2022/08/10 12:50:06;;;;;;;9.30;7.75;;;27.20;99.90;;;;;;5056883;28;20305;-77
2022/08/10 12:52:44;;;;;;;14.90;7.95;;;27.30;99.90;;;;;;5055913;28;20045;-76
2022/08/10 12:55:12;;;;;;;16.63;13.20;;;27.60;99.90;;;;;;5067966;28;20052;-77
2022/08/10 12:57:42;;;;;;;17.13;14.40;;;27.60;99.90;;;;;;5053619;28;20083;-77
2022/08/10 13:00:10;;;;;;;8.55;6.68;;;27.50;99.90;;;;;;5055055;28;20110;-78
2022/08/10 13:02:41;;;;;;;10.35;7.10;;;27.40;99.90;;;;;;5053717;28;20067;-76